Manama, Bahrain

4:29 AM AST on October 25, 2014 (GMT +0300)
Bahrain International | Change Station
CLOSE
Current Station
Airport
Location: Manama,
Elevation: 7 ft
Nearby Weather Stations

Elev 7 ft 26.27 °N, 50.63 °E | Updated 29 minutes ago

Clear
Clear
79 °F
Feels Like 79 °F
N
6
Wind Variable Wind from WNW

Today
High -- | Low -- °F
--% Chance of Precip.
Yesterday
High -- | Low -- °F
Precip. -- in
5:41 AM 5:00 PM
New Moon, 1% visible
Pressure 29.86 in
Visibility -9999.0 miles
Clouds
Dew Point 68 °F
Humidity 69%
Rainfall 0.00 in
Snow Depth Not available.
UV Not available.
Pollen Not available.
Air Quality Not available.
Flu Activity Not available.
METAR OBBI 250100Z 29005KT CAVOK 26/20 Q1011 NOSIG

More Conditions Fewer Conditions

Pressure 29.86 in
Visibility -9999.0 miles
Clouds
Dew Point 68 °F
Humidity 69%
Rainfall 0.00 in
Snow Depth Not available.
UV Not available.
Pollen Not available.
Air Quality Not available.
Flu Activity Not available.
METAR OBBI 250100Z 29005KT CAVOK 26/20 Q1011 NOSIG

More Conditions Fewer Conditions

10-Day Weather Forecast

Almanac

Astronomy

Oct. 25, 2014 Rise Set
Actual Time 5:41 AM AST 5:00 PM AST
Civil Twilight 5:18 AM AST 5:24 PM AST
Nautical Twilight 4:51 AM AST 5:51 PM AST
Astronomical Twilight 4:24 AM AST 6:18 PM AST
Moon 6:52 AM AST 6:13 PM AST
Length of Visible Light 12h 06m
Length of Day
11h 18m
Tomorrow will be 1m 25s shorter.
New Moon, 1% of the Moon is Illuminated
Oct 24
New Moon
Oct 30
First Quarter
Nov 6
Full
Nov 14
Last Quarter
Nov 22
New

Yesterday's Extremes

Country Highs Country Lows

Community

WunderPhotos

Upload Photos

1,764,741 photos uploaded!

WunderBlogs® & News

Nearby

Snow Depth

Not available.

Earthquake Activity

City Distance Mag. Time & Date
No recent earthquake activity has been reported nearby.
Minimum magnitude displayed is 2.5.

Coastal Water Temperatures

Place Temperature
No Stations Reporting

Nearby Weather Stations